Oslo Bulk 1 — 9V8766 — position and weather

sailwx.info

Track history (hours):
 
Tides and Currents Weather Stations Pressure Air Temp Water Temp Dewpoint Dewpoint Depression Visibility Wind Speed Wind Dir Waves Ship Positions

Oslo Bulk 1

Last reported at 2017-Apr-25 16:35 UTC. Time now 2017-Apr-26 11:46 UTC.
Position S 32°22' E 152°46'.

Length 108 m; draft 4.6 m.

Type: Ship. MMSI: 564010000.

Date/timePositionNaut miles runAvg speedWind from/ knotsBaromVisibWave heightAir tempDewpointWater temp
2017-Apr-25 16:35S 32°22' E 152°46'211.2
2017-Apr-25 16:26S 32°24' E 152°45'811.2
2017-Apr-25 15:44S 32°31' E 152°40'311.1
2017-Apr-25 15:29S 32°33' E 152°38'510.9
2017-Apr-25 15:00S 32°37' E 152°34'1110.5
2017-Apr-25 14:00S 32°45' E 152°27'510.4
2017-Apr-25 13:30S 32°50' E 152°24'510.3
2017-Apr-25 13:00S 32°54' E 152°20'510.2
2017-Apr-25 12:30S 32°58' E 152°17'510.1
2017-Apr-25 12:00S 33°02' E 152°12'510.5
2017-Apr-25 11:31S 33°06' E 152°09'510.2
2017-Apr-25 11:00S 33°10' E 152°05'44 9.9
2017-Apr-25 06:32S 33°46' E 151°35'4 9.8
2017-Apr-25 06:11S 33°49' E 151°33'310.0
2017-Apr-25 05:54S 33°52' E 151°31'258 8.4
2017-Apr-23 23:23S 37°54' E 149°41'611.7
2017-Apr-23 22:51S 37°58' E 149°35'511.7
2017-Apr-23 22:26S 38°00' E 149°30'511.5
2017-Apr-23 21:59S 38°03' E 149°25'911.4
2017-Apr-23 21:12S 38°09' E 149°16'212.5
2017-Apr-23 21:00S 38°10' E 149°14'611.5
2017-Apr-23 20:30S 38°14' E 149°08'1312.0
2017-Apr-23 19:26S 38°22' E 148°55'512.1
2017-Apr-23 18:59S 38°25' E 148°49'711.9
2017-Apr-23 18:22S 38°30' E 148°42'611.8
2017-Apr-23 17:51S 38°34' E 148°36'  
2017-Apr-21 10:26S 35°13' E 138°10'511.2
2017-Apr-21 10:00S 35°08' E 138°12'1911.4
2017-Apr-21 08:22S 34°51' E 138°20'  
2017-Apr-17 22:44S 35°14' E 138°10'  
Track history (hours):
 
Tides and Currents Weather Stations Pressure Air Temp Water Temp Dewpoint Dewpoint Depression Visibility Wind Speed Wind Dir Waves Ship Positions

Oslo Bulk 1

Last reported at 2017-Apr-25 16:35 UTC. Time now 2017-Apr-26 11:46 UTC.
Position S 32°22' E 152°46'.

Length 108 m; draft 4.6 m.

Type: Ship. MMSI: 564010000.

Date/timePositionNaut miles runAvg speedWind from/ knotsBaromVisibWave heightAir tempDewpointWater temp
2017-Apr-25 16:35S 32°22' E 152°46'211.2
2017-Apr-25 16:26S 32°24' E 152°45'811.2
2017-Apr-25 15:44S 32°31' E 152°40'311.1
2017-Apr-25 15:29S 32°33' E 152°38'510.9
2017-Apr-25 15:00S 32°37' E 152°34'1110.5
2017-Apr-25 14:00S 32°45' E 152°27'510.4
2017-Apr-25 13:30S 32°50' E 152°24'510.3
2017-Apr-25 13:00S 32°54' E 152°20'510.2
2017-Apr-25 12:30S 32°58' E 152°17'510.1
2017-Apr-25 12:00S 33°02' E 152°12'510.5
2017-Apr-25 11:31S 33°06' E 152°09'510.2
2017-Apr-25 11:00S 33°10' E 152°05'44 9.9
2017-Apr-25 06:32S 33°46' E 151°35'4 9.8
2017-Apr-25 06:11S 33°49' E 151°33'310.0
2017-Apr-25 05:54S 33°52' E 151°31'258 8.4
2017-Apr-23 23:23S 37°54' E 149°41'611.7
2017-Apr-23 22:51S 37°58' E 149°35'511.7
2017-Apr-23 22:26S 38°00' E 149°30'511.5
2017-Apr-23 21:59S 38°03' E 149°25'911.4
2017-Apr-23 21:12S 38°09' E 149°16'212.5
2017-Apr-23 21:00S 38°10' E 149°14'611.5
2017-Apr-23 20:30S 38°14' E 149°08'1312.0
2017-Apr-23 19:26S 38°22' E 148°55'512.1
2017-Apr-23 18:59S 38°25' E 148°49'711.9
2017-Apr-23 18:22S 38°30' E 148°42'611.8
2017-Apr-23 17:51S 38°34' E 148°36'  
2017-Apr-21 10:26S 35°13' E 138°10'511.2
2017-Apr-21 10:00S 35°08' E 138°12'1911.4
2017-Apr-21 08:22S 34°51' E 138°20'  
2017-Apr-17 22:44S 35°14' E 138°10'  

Dump ship's entire track history